Time;durP1;ratioP1;P1;durP2;ratioP2;P2;SDS_P1;SDS_P2;PMS_P1;PMS_P2;Temp;Humidity;BMP_temperature;BMP_pressure;BME280_temperature;BME280_humidity;BME280_pressure;Samples;Min_cycle;Max_cycle;Signal;HPM_P1;HPM_P2
2024/02/18 00:00:15;;;;;;;10.25;5.82;;;;;;;;;;7413759;19;19950;-83
2024/02/18 00:03:02;;;;;;;10.52;5.65;;;;;;;;;;7417336;19;19921;-83
2024/02/18 00:05:52;;;;;;;11.82;6.00;;;;;;;;;;7415869;19;19914;-83
2024/02/18 00:08:36;;;;;;;8.73;5.07;;;;;;;;;;7416004;19;20269;-83
2024/02/18 00:11:23;;;;;;;9.85;5.93;;;;;;;;;;7415608;19;19918;-83
2024/02/18 00:14:10;;;;;;;12.00;5.55;;;;;;;;;;7416257;19;20243;-82
2024/02/18 00:16:55;;;;;;;14.10;6.05;;;;;;;;;;7428870;19;19919;-82
2024/02/18 00:19:41;;;;;;;11.13;5.90;;;;;;;;;;7444339;19;19930;-82
2024/02/18 00:22:30;;;;;;;9.35;5.72;;;;;;;;;;7445312;19;19949;-82
2024/02/18 00:25:17;;;;;;;8.75;5.57;;;;;;;;;;7434770;19;19926;-83
2024/02/18 00:28:01;;;;;;;11.00;6.00;;;;;;;;;;7407478;19;19910;-83
2024/02/18 00:30:51;;;;;;;9.05;5.63;;;;;;;;;;7406715;19;19919;-83
2024/02/18 00:33:35;;;;;;;11.43;6.20;;;;;;;;;;7409039;19;19914;-83
2024/02/18 00:36:23;;;;;;;12.25;5.85;;;;;;;;;;7407631;19;20332;-82
2024/02/18 00:39:10;;;;;;;12.50;5.55;;;;;;;;;;7406695;19;19918;-82
2024/02/18 00:41:57;;;;;;;8.25;5.20;;;;;;;;;;7407942;19;19918;-83
2024/02/18 00:44:42;;;;;;;14.52;5.50;;;;;;;;;;7409803;19;19922;-83
2024/02/18 00:47:26;;;;;;;9.70;5.32;;;;;;;;;;7415234;19;19914;-82
2024/02/18 00:50:13;;;;;;;10.13;5.85;;;;;;;;;;7438731;19;19925;-82
2024/02/18 00:52:58;;;;;;;11.07;6.35;;;;;;;;;;7424617;19;19922;-83
2024/02/18 00:55:45;;;;;;;13.70;7.13;;;;;;;;;;7418113;19;19911;-82
2024/02/18 00:58:29;;;;;;;16.08;6.72;;;;;;;;;;7416700;19;19915;-82
2024/02/18 01:01:13;;;;;;;11.85;6.60;;;;;;;;;;7413804;19;20297;-82
2024/02/18 01:03:58;;;;;;;12.57;5.47;;;;;;;;;;7415219;19;19915;-82
2024/02/18 01:06:42;;;;;;;12.25;5.95;;;;;;;;;;7414732;19;19922;-82
2024/02/18 01:09:29;;;;;;;8.45;4.72;;;;;;;;;;7415854;19;19922;-82
2024/02/18 01:12:17;;;;;;;9.73;5.13;;;;;;;;;;7413203;19;19948;-82
2024/02/18 01:15:04;;;;;;;11.32;5.88;;;;;;;;;;7414037;19;19922;-83
2024/02/18 01:17:51;;;;;;;11.35;5.28;;;;;;;;;;7414032;19;19914;-83
2024/02/18 01:20:35;;;;;;;9.30;4.95;;;;;;;;;;7412192;19;19923;-83
2024/02/18 01:23:19;;;;;;;11.13;4.95;;;;;;;;;;7413531;19;19914;-82
2024/02/18 01:26:05;;;;;;;8.57;5.20;;;;;;;;;;7411821;19;19926;-83
2024/02/18 01:28:52;;;;;;;11.90;5.93;;;;;;;;;;7414038;19;19922;-82
2024/02/18 01:31:42;;;;;;;8.80;4.78;;;;;;;;;;7419223;19;20332;-82
2024/02/18 01:34:29;;;;;;;11.48;5.72;;;;;;;;;;7416152;19;19922;-82
2024/02/18 01:37:13;;;;;;;10.75;5.53;;;;;;;;;;7413375;19;19946;-82
2024/02/18 01:39:58;;;;;;;10.07;5.25;;;;;;;;;;7415124;19;19918;-83
2024/02/18 01:42:42;;;;;;;14.05;5.57;;;;;;;;;;7415483;19;20012;-82
2024/02/18 01:45:34;;;;;;;12.77;5.50;;;;;;;;;;7414504;19;19924;-82
2024/02/18 01:48:24;;;;;;;11.30;4.80;;;;;;;;;;7417413;19;19910;-82
2024/02/18 01:51:09;;;;;;;13.65;5.28;;;;;;;;;;7415440;19;19940;-82
2024/02/18 01:53:59;;;;;;;11.95;5.60;;;;;;;;;;7416473;19;19926;-82
2024/02/18 01:56:46;;;;;;;14.20;5.72;;;;;;;;;;7414281;19;19939;-83
2024/02/18 01:59:32;;;;;;;11.88;5.47;;;;;;;;;;7414999;19;20269;-83
2024/02/18 02:02:24;;;;;;;12.27;5.78;;;;;;;;;;7417026;19;19911;-83
2024/02/18 02:05:14;;;;;;;13.95;6.40;;;;;;;;;;7416020;19;19919;-83
2024/02/18 02:08:05;;;;;;;12.25;4.97;;;;;;;;;;7414599;19;19922;-83
2024/02/18 02:10:54;;;;;;;12.75;5.13;;;;;;;;;;7416647;19;19970;-83
2024/02/18 02:13:41;;;;;;;10.40;5.43;;;;;;;;;;7416173;19;20002;-83
2024/02/18 02:16:27;;;;;;;13.73;6.40;;;;;;;;;;7413559;19;19922;-83
2024/02/18 02:19:19;;;;;;;16.48;5.70;;;;;;;;;;7414372;19;19915;-83
2024/02/18 02:22:05;;;;;;;9.85;5.05;;;;;;;;;;7415399;19;19987;-83
2024/02/18 02:24:51;;;;;;;16.20;6.22;;;;;;;;;;7414794;19;19966;-83
2024/02/18 02:27:40;;;;;;;11.98;5.28;;;;;;;;;;7411761;19;19919;-83
2024/02/18 02:30:30;;;;;;;11.02;5.65;;;;;;;;;;7415646;19;19960;-83
2024/02/18 02:33:17;;;;;;;9.80;5.03;;;;;;;;;;7414764;19;19946;-83
2024/02/18 02:36:05;;;;;;;15.65;5.72;;;;;;;;;;7416921;19;19926;-83
2024/02/18 02:38:49;;;;;;;13.82;6.25;;;;;;;;;;7415384;19;20257;-83
2024/02/18 02:41:34;;;;;;;12.07;5.35;;;;;;;;;;7411978;19;19945;-83
2024/02/18 02:44:20;;;;;;;11.93;6.30;;;;;;;;;;7413155;19;19911;-83
2024/02/18 02:47:08;;;;;;;10.43;5.63;;;;;;;;;;7414594;19;19937;-83
2024/02/18 02:49:52;;;;;;;11.65;6.43;;;;;;;;;;7415713;19;19940;-82
2024/02/18 02:52:40;;;;;;;12.43;5.40;;;;;;;;;;7416145;19;19989;-83
2024/02/18 02:55:24;;;;;;;11.68;5.95;;;;;;;;;;7414857;19;20317;-83
2024/02/18 02:58:09;;;;;;;11.73;5.68;;;;;;;;;;7413008;19;19978;-83
2024/02/18 03:00:55;;;;;;;11.30;5.47;;;;;;;;;;7412635;19;19918;-83
2024/02/18 03:03:42;;;;;;;10.75;5.70;;;;;;;;;;7414595;19;19925;-83
2024/02/18 03:06:27;;;;;;;10.80;5.18;;;;;;;;;;7421069;19;19927;-83
2024/02/18 03:09:12;;;;;;;9.65;4.97;;;;;;;;;;7445358;19;19942;-82
2024/02/18 03:11:59;;;;;;;11.18;5.28;;;;;;;;;;7430794;19;19910;-83
2024/02/18 03:14:47;;;;;;;9.43;4.40;;;;;;;;;;7418215;19;20341;-83
2024/02/18 03:17:33;;;;;;;11.30;5.18;;;;;;;;;;7415921;19;19918;-83
2024/02/18 03:20:20;;;;;;;13.27;6.00;;;;;;;;;;7411977;19;19923;-83
2024/02/18 03:23:07;;;;;;;12.05;5.57;;;;;;;;;;7414980;19;19923;-83
2024/02/18 03:25:54;;;;;;;13.10;5.13;;;;;;;;;;7415346;19;19910;-83
2024/02/18 03:28:40;;;;;;;11.05;4.80;;;;;;;;;;7414721;19;19922;-83
2024/02/18 03:31:25;;;;;;;9.25;5.03;;;;;;;;;;7414494;19;20379;-83
2024/02/18 03:34:11;;;;;;;11.77;4.97;;;;;;;;;;7414277;19;19926;-82
2024/02/18 03:37:00;;;;;;;10.50;4.78;;;;;;;;;;7415181;19;20261;-83
2024/02/18 03:39:49;;;;;;;10.18;4.18;;;;;;;;;;7412375;19;20261;-83
2024/02/18 03:42:34;;;;;;;11.30;4.88;;;;;;;;;;7415802;19;19919;-83
2024/02/18 03:45:21;;;;;;;9.18;4.32;;;;;;;;;;7415417;19;19915;-83
2024/02/18 03:48:04;;;;;;;9.52;4.60;;;;;;;;;;7424257;19;19918;-86
2024/02/18 03:50:49;;;;;;;10.25;4.78;;;;;;;;;;7426296;19;20334;-86
2024/02/18 03:53:40;;;;;;;10.50;5.95;;;;;;;;;;7423621;19;19917;-86
2024/02/18 03:56:25;;;;;;;9.85;4.70;;;;;;;;;;7421929;19;19918;-85
2024/02/18 03:59:10;;;;;;;8.55;4.13;;;;;;;;;;7421608;19;20012;-85
2024/02/18 04:01:54;;;;;;;7.80;3.95;;;;;;;;;;7414908;19;19919;-86
2024/02/18 04:04:43;;;;;;;9.13;5.07;;;;;;;;;;7413866;19;19935;-85
2024/02/18 04:07:30;;;;;;;7.40;4.25;;;;;;;;;;7412020;19;19911;-85
2024/02/18 04:10:17;;;;;;;7.45;4.25;;;;;;;;;;7412871;19;19918;-85
2024/02/18 04:13:01;;;;;;;7.78;4.03;;;;;;;;;;7415106;19;19929;-86
2024/02/18 04:15:48;;;;;;;13.57;5.07;;;;;;;;;;7413196;19;19923;-85
2024/02/18 04:18:34;;;;;;;9.00;5.40;;;;;;;;;;7413529;19;19927;-85
2024/02/18 04:21:21;;;;;;;8.77;4.88;;;;;;;;;;7411487;19;19914;-85
2024/02/18 04:24:06;;;;;;;11.50;5.30;;;;;;;;;;7414041;19;19918;-85
2024/02/18 04:26:53;;;;;;;10.60;5.40;;;;;;;;;;7412820;19;19945;-85
2024/02/18 04:29:38;;;;;;;9.25;4.60;;;;;;;;;;7410764;19;19911;-85
2024/02/18 04:32:24;;;;;;;11.13;5.20;;;;;;;;;;7412874;19;19928;-85
2024/02/18 04:35:11;;;;;;;9.18;5.10;;;;;;;;;;7412793;19;19911;-85
2024/02/18 04:37:58;;;;;;;12.75;4.88;;;;;;;;;;7411795;19;19919;-85
2024/02/18 04:40:42;;;;;;;9.95;4.72;;;;;;;;;;7435463;19;19937;-85
2024/02/18 04:43:31;;;;;;;12.57;4.80;;;;;;;;;;7441493;19;19920;-86
2024/02/18 04:46:16;;;;;;;15.90;6.63;;;;;;;;;;7442944;19;19935;-85
2024/02/18 04:49:05;;;;;;;18.55;6.60;;;;;;;;;;7444292;19;19951;-85
2024/02/18 04:51:49;;;;;;;16.10;5.72;;;;;;;;;;7443775;19;19959;-86
2024/02/18 04:54:36;;;;;;;11.50;5.80;;;;;;;;;;7440658;19;19917;-86
2024/02/18 04:57:23;;;;;;;14.52;6.78;;;;;;;;;;7432166;19;19921;-86
2024/02/18 05:00:14;;;;;;;14.75;6.22;;;;;;;;;;7424185;19;20332;-85
2024/02/18 05:03:00;;;;;;;14.35;5.35;;;;;;;;;;7418217;19;19925;-85
2024/02/18 05:05:47;;;;;;;15.43;6.97;;;;;;;;;;7424711;19;19939;-85
2024/02/18 05:08:33;;;;;;;18.13;6.63;;;;;;;;;;7423665;19;19918;-85
2024/02/18 05:11:17;;;;;;;17.35;7.03;;;;;;;;;;7424378;19;19923;-85
2024/02/18 05:14:04;;;;;;;13.68;6.72;;;;;;;;;;7424924;19;19933;-85
2024/02/18 05:16:57;;;;;;;10.98;5.35;;;;;;;;;;7423766;19;20005;-85
2024/02/18 05:19:43;;;;;;;18.27;6.30;;;;;;;;;;7423107;19;19926;-85
2024/02/18 05:22:30;;;;;;;20.13;6.65;;;;;;;;;;7424999;19;20254;-85
2024/02/18 05:25:16;;;;;;;14.75;6.45;;;;;;;;;;7427370;19;19922;-85
2024/02/18 05:28:01;;;;;;;17.20;6.10;;;;;;;;;;7427347;19;19921;-84
2024/02/18 05:30:45;;;;;;;12.80;5.70;;;;;;;;;;7420703;19;19925;-84
2024/02/18 05:33:32;;;;;;;16.60;7.03;;;;;;;;;;7419242;19;19919;-84
2024/02/18 05:36:16;;;;;;;19.27;6.93;;;;;;;;;;7420763;19;19947;-84
2024/02/18 05:39:00;;;;;;;20.52;6.57;;;;;;;;;;7420049;19;19978;-83
2024/02/18 05:41:48;;;;;;;13.38;5.47;;;;;;;;;;7414967;19;19986;-83
2024/02/18 05:44:37;;;;;;;17.02;6.40;;;;;;;;;;7420651;19;19925;-84
2024/02/18 05:47:21;;;;;;;11.48;5.57;;;;;;;;;;7417993;19;19979;-84
2024/02/18 05:50:09;;;;;;;15.93;6.53;;;;;;;;;;7420144;19;19918;-85
2024/02/18 05:52:54;;;;;;;15.35;7.07;;;;;;;;;;7420187;19;20361;-84
2024/02/18 05:55:43;;;;;;;15.40;7.07;;;;;;;;;;7418902;19;19919;-84
2024/02/18 05:58:29;;;;;;;14.02;6.45;;;;;;;;;;7419839;19;19929;-83
2024/02/18 06:01:13;;;;;;;15.30;6.07;;;;;;;;;;7414549;19;19915;-83
2024/02/18 06:03:58;;;;;;;11.20;5.90;;;;;;;;;;7420076;19;19911;-83
2024/02/18 06:06:47;;;;;;;15.85;7.03;;;;;;;;;;7419060;19;19915;-84
2024/02/18 06:09:31;;;;;;;20.05;6.97;;;;;;;;;;7418515;19;19925;-84
2024/02/18 06:12:18;;;;;;;18.35;6.35;;;;;;;;;;7420075;19;20241;-83
2024/02/18 06:15:08;;;;;;;15.23;6.25;;;;;;;;;;7416496;19;19918;-83
2024/02/18 06:17:57;;;;;;;19.40;6.25;;;;;;;;;;7416558;19;19918;-83
2024/02/18 06:20:43;;;;;;;13.13;6.40;;;;;;;;;;7415595;19;19915;-84
2024/02/18 06:23:30;;;;;;;14.55;5.72;;;;;;;;;;7417405;19;19929;-84
2024/02/18 06:26:17;;;;;;;11.98;5.53;;;;;;;;;;7417826;19;19959;-84
2024/02/18 06:29:04;;;;;;;18.45;6.78;;;;;;;;;;7419826;19;19911;-84
2024/02/18 06:31:48;;;;;;;18.63;6.70;;;;;;;;;;7418454;19;19922;-84
2024/02/18 06:34:33;;;;;;;14.18;6.03;;;;;;;;;;7419623;19;19918;-83
2024/02/18 06:37:17;;;;;;;19.63;6.45;;;;;;;;;;7417039;19;19918;-83
2024/02/18 06:40:09;;;;;;;13.25;6.35;;;;;;;;;;7415810;19;19906;-83
2024/02/18 06:42:54;;;;;;;20.63;7.10;;;;;;;;;;7418563;19;19938;-84
2024/02/18 06:45:38;;;;;;;31.27;7.95;;;;;;;;;;7417520;19;19923;-84
2024/02/18 06:48:22;;;;;;;26.33;6.18;;;;;;;;;;7417685;19;19915;-84
2024/02/18 06:51:10;;;;;;;24.33;6.07;;;;;;;;;;7415102;19;19926;-84
2024/02/18 06:53:59;;;;;;;14.27;5.53;;;;;;;;;;7417198;19;19919;-83
2024/02/18 06:56:49;;;;;;;16.42;5.85;;;;;;;;;;7417840;19;19922;-84
2024/02/18 06:59:35;;;;;;;15.88;6.30;;;;;;;;;;7415996;19;19907;-84
2024/02/18 07:02:19;;;;;;;14.32;5.88;;;;;;;;;;7415221;19;19919;-84
2024/02/18 07:05:05;;;;;;;15.15;5.22;;;;;;;;;;7417201;19;19914;-84
2024/02/18 07:07:51;;;;;;;12.52;5.07;;;;;;;;;;7414235;19;20285;-83
2024/02/18 07:10:35;;;;;;;15.25;5.18;;;;;;;;;;7414493;19;19936;-83
2024/02/18 07:13:22;;;;;;;18.65;4.68;;;;;;;;;;7416739;19;20284;-83
2024/02/18 07:16:10;;;;;;;13.63;4.90;;;;;;;;;;7416656;19;19911;-83
2024/02/18 07:18:56;;;;;;;16.92;4.97;;;;;;;;;;7416821;19;19951;-84
2024/02/18 07:21:43;;;;;;;10.75;4.30;;;;;;;;;;7412351;19;19922;-84
2024/02/18 07:24:28;;;;;;;17.50;4.78;;;;;;;;;;7419449;19;19921;-84
2024/02/18 07:27:15;;;;;;;13.30;4.75;;;;;;;;;;7415530;19;19963;-83
2024/02/18 07:30:05;;;;;;;8.80;4.60;;;;;;;;;;7415407;19;19923;-83
2024/02/18 07:32:49;;;;;;;10.88;5.05;;;;;;;;;;7418187;19;19914;-84
2024/02/18 07:35:33;;;;;;;9.88;4.30;;;;;;;;;;7416363;19;19976;-84
2024/02/18 07:38:20;;;;;;;11.32;4.63;;;;;;;;;;7417369;19;19911;-84
2024/02/18 07:41:08;;;;;;;8.07;4.28;;;;;;;;;;7414626;19;19951;-84
2024/02/18 07:43:55;;;;;;;12.00;4.57;;;;;;;;;;7415159;19;20277;-83
2024/02/18 07:46:48;;;;;;;10.38;4.47;;;;;;;;;;7413379;19;19911;-83
2024/02/18 07:49:34;;;;;;;12.93;4.88;;;;;;;;;;7414850;19;19926;-84
2024/02/18 07:52:21;;;;;;;9.55;5.30;;;;;;;;;;7415302;19;19915;-85
2024/02/18 07:55:08;;;;;;;18.40;5.22;;;;;;;;;;7415103;19;19935;-83
2024/02/18 07:57:55;;;;;;;12.73;5.00;;;;;;;;;;7414556;19;19951;-84
2024/02/18 08:00:41;;;;;;;11.18;4.50;;;;;;;;;;7413641;19;19947;-84
2024/02/18 08:03:28;;;;;;;9.38;4.38;;;;;;;;;;7415900;19;20333;-83
2024/02/18 08:06:12;;;;;;;11.32;4.75;;;;;;;;;;7413061;19;20258;-83
2024/02/18 08:08:57;;;;;;;8.07;4.10;;;;;;;;;;7414757;19;19926;-84
2024/02/18 08:11:44;;;;;;;9.77;4.72;;;;;;;;;;7414569;19;19923;-84
2024/02/18 08:14:29;;;;;;;9.98;4.30;;;;;;;;;;7415292;19;19921;-84
2024/02/18 08:17:18;;;;;;;10.68;4.45;;;;;;;;;;7414056;19;19926;-84
2024/02/18 08:20:05;;;;;;;9.45;4.55;;;;;;;;;;7413721;19;19918;-84
2024/02/18 08:22:51;;;;;;;9.23;4.55;;;;;;;;;;7409103;19;19930;-84
2024/02/18 08:25:38;;;;;;;11.68;4.82;;;;;;;;;;7415715;19;19918;-84
2024/02/18 08:28:22;;;;;;;10.10;5.18;;;;;;;;;;7414397;19;20000;-84
2024/02/18 08:31:07;;;;;;;11.23;5.55;;;;;;;;;;7415385;19;20008;-84
2024/02/18 08:33:51;;;;;;;11.35;5.15;;;;;;;;;;7413226;19;19918;-84
2024/02/18 08:36:38;;;;;;;11.38;5.47;;;;;;;;;;7414115;19;19922;-84
2024/02/18 08:39:25;;;;;;;16.17;5.25;;;;;;;;;;7415040;19;20345;-84
2024/02/18 08:42:12;;;;;;;11.18;5.35;;;;;;;;;;7414532;19;20006;-84
2024/02/18 08:44:59;;;;;;;12.40;5.93;;;;;;;;;;7424215;19;19927;-84
2024/02/18 08:47:48;;;;;;;11.20;5.20;;;;;;;;;;7427140;19;20333;-84
2024/02/18 08:50:34;;;;;;;13.43;5.47;;;;;;;;;;7420511;19;19978;-84
2024/02/18 08:53:21;;;;;;;12.57;5.95;;;;;;;;;;7413460;19;19915;-84
2024/02/18 08:56:06;;;;;;;16.13;6.85;;;;;;;;;;7414581;19;19907;-84
2024/02/18 08:58:53;;;;;;;11.95;5.15;;;;;;;;;;7415787;19;19919;-84
2024/02/18 09:01:40;;;;;;;13.40;5.85;;;;;;;;;;7414721;19;19929;-84
2024/02/18 09:04:24;;;;;;;15.68;6.25;;;;;;;;;;7414281;19;20412;-83
2024/02/18 09:07:10;;;;;;;11.80;5.88;;;;;;;;;;7415250;19;19919;-84
2024/02/18 09:09:57;;;;;;;14.07;7.15;;;;;;;;;;7411840;19;19931;-84
2024/02/18 09:12:44;;;;;;;11.30;6.85;;;;;;;;;;7413840;19;19919;-83
2024/02/18 09:15:33;;;;;;;11.43;6.75;;;;;;;;;;7414686;19;19918;-84
2024/02/18 09:18:18;;;;;;;13.02;6.55;;;;;;;;;;7409745;19;19923;-84
2024/02/18 09:21:05;;;;;;;12.98;7.00;;;;;;;;;;7403776;19;19925;-84
2024/02/18 09:23:49;;;;;;;15.25;6.85;;;;;;;;;;7413494;19;19918;-84
2024/02/18 09:26:41;;;;;;;15.13;6.75;;;;;;;;;;7411241;19;19926;-84
2024/02/18 09:29:29;;;;;;;11.00;5.85;;;;;;;;;;7410758;19;19915;-84
2024/02/18 09:32:16;;;;;;;13.25;6.40;;;;;;;;;;7407268;19;19925;-84
2024/02/18 09:35:00;;;;;;;15.02;7.32;;;;;;;;;;7410110;19;19911;-84
2024/02/18 09:37:47;;;;;;;14.43;6.53;;;;;;;;;;7407772;19;19981;-84
2024/02/18 09:40:36;;;;;;;14.63;7.03;;;;;;;;;;7409813;19;19923;-83
2024/02/18 09:43:24;;;;;;;13.95;7.13;;;;;;;;;;7410051;19;20308;-84
2024/02/18 09:49:00;;;;;;;15.52;6.70;;;;;;;;;;7404797;19;19922;-84
2024/02/18 09:51:44;;;;;;;11.95;5.75;;;;;;;;;;7406509;19;19918;-84
2024/02/18 09:54:33;;;;;;;10.38;5.90;;;;;;;;;;7411610;19;19926;-84
2024/02/18 09:57:18;;;;;;;9.18;4.93;;;;;;;;;;7410565;19;19915;-83
2024/02/18 10:00:07;;;;;;;10.63;4.72;;;;;;;;;;7412369;19;19915;-84
2024/02/18 10:02:51;;;;;;;10.65;5.88;;;;;;;;;;7406788;19;20313;-83
2024/02/18 10:05:40;;;;;;;12.10;5.75;;;;;;;;;;7412274;19;19911;-84
2024/02/18 10:08:25;;;;;;;10.18;5.82;;;;;;;;;;7412549;19;19910;-84
2024/02/18 10:11:09;;;;;;;8.95;4.53;;;;;;;;;;7410599;19;19923;-84
2024/02/18 10:13:59;;;;;;;7.18;4.03;;;;;;;;;;7410548;19;19927;-84
2024/02/18 10:16:47;;;;;;;8.85;4.30;;;;;;;;;;7410609;19;20142;-84
2024/02/18 10:19:33;;;;;;;10.60;5.55;;;;;;;;;;7411421;19;19936;-84
2024/02/18 10:22:17;;;;;;;6.82;4.32;;;;;;;;;;7407977;19;19915;-82
2024/02/18 10:25:03;;;;;;;11.77;4.93;;;;;;;;;;7413013;19;19911;-83
2024/02/18 10:27:49;;;;;;;9.43;4.95;;;;;;;;;;7412111;19;19919;-85
2024/02/18 10:30:34;;;;;;;9.68;5.63;;;;;;;;;;7417270;19;19915;-84
2024/02/18 10:37:07;;;;;;;8.48;4.25;;;;;;;;;;7414475;19;19910;-84
2024/02/18 10:39:59;;;;;;;7.63;4.78;;;;;;;;;;7415999;19;19974;-84
2024/02/18 10:42:45;;;;;;;9.10;4.68;;;;;;;;;;7414781;19;19919;-84
2024/02/18 10:45:30;;;;;;;8.07;4.70;;;;;;;;;;7414528;19;19919;-84
2024/02/18 10:48:22;;;;;;;7.55;4.55;;;;;;;;;;7413373;19;19925;-84
2024/02/18 10:51:09;;;;;;;7.70;4.30;;;;;;;;;;7413433;19;20001;-84
2024/02/18 10:54:05;;;;;;;7.05;4.30;;;;;;;;;;7415891;19;19918;-84
2024/02/18 10:56:53;;;;;;;;;;;;;;;;;;7416906;19;19926;-84
2024/02/18 10:59:54;;;;;;;8.65;4.35;;;;;;;;;;7414609;19;19918;-84
2024/02/18 11:02:47;;;;;;;8.70;4.60;;;;;;;;;;7411158;19;19915;-84
2024/02/18 11:05:37;;;;;;;6.65;4.55;;;;;;;;;;7413882;19;19918;-84
2024/02/18 11:08:23;;;;;;;6.68;4.50;;;;;;;;;;7414122;19;19907;-84
2024/02/18 11:11:12;;;;;;;7.40;4.20;;;;;;;;;;7413917;19;20325;-83
2024/02/18 11:14:02;;;;;;;7.00;4.85;;;;;;;;;;7413352;19;19954;-84
2024/02/18 11:16:48;;;;;;;7.00;4.22;;;;;;;;;;7413253;19;19944;-84
2024/02/18 11:19:34;;;;;;;6.57;3.97;;;;;;;;;;7412473;19;20299;-84
2024/02/18 11:22:26;;;;;;;7.93;4.20;;;;;;;;;;7413353;19;19926;-84
2024/02/18 11:25:14;;;;;;;7.38;4.35;;;;;;;;;;7413244;19;19932;-83
2024/02/18 11:28:01;;;;;;;5.15;3.92;;;;;;;;;;7413064;19;19925;-84
2024/02/18 11:30:45;;;;;;;6.72;3.92;;;;;;;;;;7412468;19;19929;-83
2024/02/18 11:33:33;;;;;;;5.88;2.80;;;;;;;;;;7413387;19;19934;-83
2024/02/18 11:36:19;;;;;;;5.93;2.63;;;;;;;;;;7412954;19;20018;-84
2024/02/18 11:39:10;;;;;;;7.47;2.90;;;;;;;;;;7414138;19;19922;-83
2024/02/18 11:41:57;;;;;;;4.82;2.75;;;;;;;;;;7413461;19;19919;-83
2024/02/18 11:44:45;;;;;;;3.83;2.17;;;;;;;;;;7412898;19;19907;-84
2024/02/18 11:47:31;;;;;;;3.97;2.50;;;;;;;;;;7410871;19;19922;-84
2024/02/18 11:50:17;;;;;;;4.05;2.70;;;;;;;;;;7412618;19;19949;-84
2024/02/18 11:53:06;;;;;;;;;;;;;;;;;;7415315;19;20273;-83
2024/02/18 11:55:56;;;;;;;4.55;2.40;;;;;;;;;;7412162;19;20340;-83
2024/02/18 11:58:42;;;;;;;6.28;2.90;;;;;;;;;;7413467;19;19914;-84
2024/02/18 12:01:30;;;;;;;6.47;2.88;;;;;;;;;;7412581;19;19915;-84
2024/02/18 12:04:16;;;;;;;8.23;3.22;;;;;;;;;;7410788;19;20325;-83
2024/02/18 12:07:01;;;;;;;5.45;3.03;;;;;;;;;;7410994;19;19915;-84
2024/02/18 12:09:48;;;;;;;3.88;2.63;;;;;;;;;;7412666;19;19953;-83
2024/02/18 12:12:38;;;;;;;9.85;3.42;;;;;;;;;;7412810;19;19927;-83
2024/02/18 12:15:27;;;;;;;5.18;2.75;;;;;;;;;;7412793;19;19918;-83
2024/02/18 12:18:12;;;;;;;5.93;2.97;;;;;;;;;;7409844;19;19926;-83
2024/02/18 12:20:58;;;;;;;3.90;2.42;;;;;;;;;;7411565;19;20328;-84
2024/02/18 12:23:43;;;;;;;5.75;2.67;;;;;;;;;;7411225;19;19923;-83
2024/02/18 12:26:27;;;;;;;5.35;2.50;;;;;;;;;;7412107;19;20302;-83
2024/02/18 12:29:19;;;;;;;4.70;2.70;;;;;;;;;;7412916;19;19926;-83
2024/02/18 12:32:06;;;;;;;4.00;2.28;;;;;;;;;;7413399;19;19918;-83
2024/02/18 12:34:53;;;;;;;4.78;2.50;;;;;;;;;;7413704;19;19911;-83
2024/02/18 12:37:40;;;;;;;5.47;2.67;;;;;;;;;;7412348;19;19911;-83
2024/02/18 12:40:27;;;;;;;3.60;2.38;;;;;;;;;;7412404;19;19970;-84
2024/02/18 12:43:11;;;;;;;3.92;2.33;;;;;;;;;;7412764;19;19914;-83
2024/02/18 12:46:04;;;;;;;3.95;2.70;;;;;;;;;;7415056;19;20448;-83
2024/02/18 12:48:52;;;;;;;5.03;3.10;;;;;;;;;;7413842;19;19919;-83
2024/02/18 12:51:43;;;;;;;6.88;2.55;;;;;;;;;;7412814;19;19981;-84
2024/02/18 12:54:29;;;;;;;6.20;2.72;;;;;;;;;;7413095;19;19960;-84
2024/02/18 12:57:13;;;;;;;5.25;3.22;;;;;;;;;;7410769;19;19970;-84
2024/02/18 13:00:00;;;;;;;7.28;2.95;;;;;;;;;;7413182;19;19927;-83
2024/02/18 13:02:53;;;;;;;4.40;2.38;;;;;;;;;;7413283;19;19915;-83
2024/02/18 13:05:42;;;;;;;5.63;2.72;;;;;;;;;;7413295;19;19934;-83
2024/02/18 13:08:27;;;;;;;4.88;2.90;;;;;;;;;;7412997;19;19923;-83
2024/02/18 13:11:14;;;;;;;4.75;2.95;;;;;;;;;;7409877;19;19925;-85
2024/02/18 13:14:01;;;;;;;3.88;2.75;;;;;;;;;;7413177;19;20385;-83
2024/02/18 13:16:48;;;;;;;3.30;2.58;;;;;;;;;;7412883;19;20644;-83
2024/02/18 13:19:42;;;;;;;6.75;3.53;;;;;;;;;;7412538;19;19914;-83
2024/02/18 13:22:30;;;;;;;3.85;2.63;;;;;;;;;;7410632;19;19934;-83
2024/02/18 13:25:15;;;;;;;5.38;2.97;;;;;;;;;;7415967;19;19914;-83
2024/02/18 13:28:04;;;;;;;6.00;2.78;;;;;;;;;;7417645;19;19922;-83
2024/02/18 13:30:50;;;;;;;6.90;3.17;;;;;;;;;;7419508;19;19919;-83
2024/02/18 13:33:38;;;;;;;4.25;2.80;;;;;;;;;;7418750;19;19949;-83
2024/02/18 13:36:29;;;;;;;5.65;3.13;;;;;;;;;;7418013;19;19915;-83
2024/02/18 13:39:18;;;;;;;5.63;3.20;;;;;;;;;;7418960;19;19925;-83
2024/02/18 13:42:06;;;;;;;5.88;2.70;;;;;;;;;;7418679;19;19910;-83
2024/02/18 13:44:52;;;;;;;5.03;3.20;;;;;;;;;;7416080;19;19970;-83
2024/02/18 13:47:39;;;;;;;6.68;3.25;;;;;;;;;;7416927;19;20608;-83
2024/02/18 13:50:23;;;;;;;5.13;2.40;;;;;;;;;;7417715;19;19918;-82
2024/02/18 13:53:10;;;;;;;5.22;2.67;;;;;;;;;;7417013;19;19922;-83
2024/02/18 13:55:59;;;;;;;5.45;2.80;;;;;;;;;;7417199;19;19907;-83
2024/02/18 13:58:43;;;;;;;4.68;2.45;;;;;;;;;;7417594;19;19940;-83
2024/02/18 14:01:31;;;;;;;7.88;2.72;;;;;;;;;;7416263;19;20289;-83
2024/02/18 14:04:18;;;;;;;5.05;2.70;;;;;;;;;;7415806;19;19982;-83
2024/02/18 14:07:06;;;;;;;3.75;2.70;;;;;;;;;;7415335;19;19982;-83
2024/02/18 14:09:56;;;;;;;6.68;2.97;;;;;;;;;;7416472;19;19910;-83
2024/02/18 14:12:42;;;;;;;4.78;3.17;;;;;;;;;;7416955;19;19927;-83
2024/02/18 14:15:31;;;;;;;6.40;3.35;;;;;;;;;;7416097;19;19914;-83
2024/02/18 14:18:16;;;;;;;5.60;2.88;;;;;;;;;;7414290;19;19985;-84
2024/02/18 14:21:03;;;;;;;5.97;3.10;;;;;;;;;;7416797;19;19914;-83
2024/02/18 14:23:48;;;;;;;7.03;2.88;;;;;;;;;;7415348;19;19926;-84
2024/02/18 14:26:38;;;;;;;6.25;2.92;;;;;;;;;;7414760;19;19919;-83
2024/02/18 14:29:25;;;;;;;5.97;3.53;;;;;;;;;;7415304;19;20318;-83
2024/02/18 14:32:09;;;;;;;6.22;3.42;;;;;;;;;;7417020;19;19986;-83
2024/02/18 14:34:55;;;;;;;5.60;3.13;;;;;;;;;;7416133;19;19937;-83
2024/02/18 14:37:41;;;;;;;5.75;3.17;;;;;;;;;;7414405;19;19922;-83
2024/02/18 14:40:26;;;;;;;5.57;3.30;;;;;;;;;;7414206;19;20296;-83
2024/02/18 14:43:18;;;;;;;6.70;3.30;;;;;;;;;;7416171;19;19919;-83
2024/02/18 14:46:02;;;;;;;6.30;3.65;;;;;;;;;;7415381;19;19982;-83
2024/02/18 14:48:48;;;;;;;7.15;3.17;;;;;;;;;;7417203;19;19922;-83
2024/02/18 14:51:33;;;;;;;6.65;3.00;;;;;;;;;;7412897;19;19990;-83
2024/02/18 14:54:20;;;;;;;5.35;3.33;;;;;;;;;;7418263;19;19910;-82
2024/02/18 14:57:04;;;;;;;4.65;2.50;;;;;;;;;;7412888;19;19911;-83
2024/02/18 14:59:51;;;;;;;5.05;2.80;;;;;;;;;;7414232;19;19918;-81
2024/02/18 15:02:38;;;;;;;5.68;2.50;;;;;;;;;;7416907;19;20234;-82
2024/02/18 15:05:28;;;;;;;7.07;3.55;;;;;;;;;;7415265;19;19923;-82
2024/02/18 15:08:12;;;;;;;4.55;2.58;;;;;;;;;;7412614;19;20628;-83
2024/02/18 15:10:59;;;;;;;4.63;2.53;;;;;;;;;;7415086;19;19922;-82
2024/02/18 15:13:44;;;;;;;5.15;2.47;;;;;;;;;;7416297;19;19926;-82
2024/02/18 15:16:32;;;;;;;4.63;2.83;;;;;;;;;;7413570;19;20011;-82
2024/02/18 15:19:22;;;;;;;4.20;2.20;;;;;;;;;;7414630;19;19936;-82
2024/02/18 15:22:06;;;;;;;4.07;2.08;;;;;;;;;;7413987;19;19910;-83
2024/02/18 15:24:55;;;;;;;5.00;2.45;;;;;;;;;;7411497;19;20539;-82
2024/02/18 15:27:41;;;;;;;3.47;2.22;;;;;;;;;;7413933;19;19906;-83
2024/02/18 15:30:28;;;;;;;3.42;2.20;;;;;;;;;;7414050;19;19934;-83
2024/02/18 15:33:15;;;;;;;4.22;2.33;;;;;;;;;;7414411;19;19929;-83
2024/02/18 15:36:04;;;;;;;4.07;2.30;;;;;;;;;;7414565;19;19906;-82
2024/02/18 15:38:52;;;;;;;4.43;2.42;;;;;;;;;;7412445;19;19929;-82
2024/02/18 15:41:39;;;;;;;5.80;2.60;;;;;;;;;;7412088;19;19918;-82
2024/02/18 15:44:25;;;;;;;4.07;2.30;;;;;;;;;;7413536;19;19925;-83
2024/02/18 15:47:12;;;;;;;4.13;2.40;;;;;;;;;;7411670;19;19915;-83
2024/02/18 15:49:59;;;;;;;2.92;1.98;;;;;;;;;;7410737;19;20020;-83
2024/02/18 15:52:43;;;;;;;3.95;2.50;;;;;;;;;;7414119;19;19919;-83
2024/02/18 15:55:28;;;;;;;3.00;1.85;;;;;;;;;;7436372;19;19914;-83
2024/02/18 15:58:14;;;;;;;3.83;2.53;;;;;;;;;;7441894;19;19907;-82
2024/02/18 16:01:00;;;;;;;3.92;2.33;;;;;;;;;;7418882;19;19955;-82
2024/02/18 16:03:44;;;;;;;4.38;2.10;;;;;;;;;;7407067;19;20363;-82
2024/02/18 16:06:41;;;;;;;3.88;2.47;;;;;;;;;;7407212;19;19970;-82
2024/02/18 16:09:30;;;;;;;4.20;2.35;;;;;;;;;;7408143;19;20336;-82
2024/02/18 16:12:14;;;;;;;3.53;2.28;;;;;;;;;;7409008;19;19936;-82
2024/02/18 16:15:01;;;;;;;6.95;2.55;;;;;;;;;;7406091;19;20081;-82
2024/02/18 16:17:53;;;;;;;4.65;2.58;;;;;;;;;;7410318;19;19970;-82
2024/02/18 16:20:39;;;;;;;3.50;2.15;;;;;;;;;;7406993;19;20322;-82
2024/02/18 16:23:27;;;;;;;3.63;2.45;;;;;;;;;;7409648;19;19913;-82
2024/02/18 16:26:14;;;;;;;4.15;2.45;;;;;;;;;;7406423;19;20310;-82
2024/02/18 16:29:01;;;;;;;4.43;2.22;;;;;;;;;;7409814;19;19922;-82
2024/02/18 16:31:46;;;;;;;3.83;2.10;;;;;;;;;;7406419;19;19982;-82
2024/02/18 16:34:34;;;;;;;4.18;2.47;;;;;;;;;;7410319;19;19921;-82
2024/02/18 16:37:24;;;;;;;6.13;2.53;;;;;;;;;;7408061;19;20334;-82